Terminal Aerodrome Forecast
Issued by NWS Duluth, MN

Home | Current Version | Previous Version | Text Only | Print | Product List | Glossary On
Versions: 1 2 3 4 5 6 7 8 9 10 11 12 13 14 15 16 17 18 19 20 21 22 23 24 25 26 27 28 29 30 31 32 33 34 35 36 37 38 39 40
000
FTUS43 KDLH 072133 AAC
TAFINL
TAF AMD
KINL 072133Z 0722/0818 32010G20KT 1/4SM -SN BLSN FZFG SCT012 OVC022
      TEMPO 0722/0724 1SM -SN BR BKN012 OVC022
     FM080000 32014G21KT 1SM -SN BLSN OVC015
     FM080200 32012KT 2SM -SN BLSN OVC015
     FM081000 33011KT P6SM VCSH OVC012
     FM081400 33012G20KT P6SM VCSH OVC020=

USA.gov is the U.S. government's official web portal to all federal, state and local government web resources and services.